sensor_id;sensor_type;location;lat;lon;timestamp;pressure;altitude;pressure_sealevel;temperature;humidity
54389;BME280;40975;50.390;8.640;2023-07-30T00:01:29;98474.16;;;17.26;100.00
54389;BME280;40975;50.390;8.640;2023-07-30T00:03:54;98483.03;;;17.27;100.00
54389;BME280;40975;50.390;8.640;2023-07-30T00:06:19;98479.31;;;17.28;100.00
54389;BME280;40975;50.390;8.640;2023-07-30T00:08:45;98468.38;;;17.22;100.00
54389;BME280;40975;50.390;8.640;2023-07-30T00:11:10;98481.16;;;17.20;100.00
54389;BME280;40975;50.390;8.640;2023-07-30T00:13:35;98483.44;;;17.17;100.00
54389;BME280;40975;50.390;8.640;2023-07-30T00:16:01;98485.06;;;17.11;100.00
54389;BME280;40975;50.390;8.640;2023-07-30T00:18:26;98492.91;;;17.06;100.00
54389;BME280;40975;50.390;8.640;2023-07-30T00:20:51;98496.41;;;17.00;100.00
54389;BME280;40975;50.390;8.640;2023-07-30T00:23:17;98502.59;;;16.93;100.00
54389;BME280;40975;50.390;8.640;2023-07-30T00:25:42;98494.09;;;16.90;100.00
54389;BME280;40975;50.390;8.640;2023-07-30T00:28:07;98496.75;;;16.83;100.00
54389;BME280;40975;50.390;8.640;2023-07-30T00:30:32;98493.66;;;16.79;100.00
54389;BME280;40975;50.390;8.640;2023-07-30T00:32:58;98490.75;;;16.74;100.00
54389;BME280;40975;50.390;8.640;2023-07-30T00:35:23;98489.31;;;16.72;100.00
54389;BME280;40975;50.390;8.640;2023-07-30T00:37:49;98493.84;;;16.71;100.00
54389;BME280;40975;50.390;8.640;2023-07-30T00:40:14;98500.22;;;16.70;100.00
54389;BME280;40975;50.390;8.640;2023-07-30T00:42:39;98495.25;;;16.67;100.00
54389;BME280;40975;50.390;8.640;2023-07-30T00:45:08;98499.59;;;16.68;100.00
54389;BME280;40975;50.390;8.640;2023-07-30T00:47:34;98493.41;;;16.68;100.00
54389;BME280;40975;50.390;8.640;2023-07-30T00:50:00;98495.25;;;16.67;100.00
54389;BME280;40975;50.390;8.640;2023-07-30T00:52:29;98498.38;;;16.71;100.00
54389;BME280;40975;50.390;8.640;2023-07-30T00:54:57;98501.25;;;16.69;100.00
54389;BME280;40975;50.390;8.640;2023-07-30T00:57:22;98499.59;;;16.68;100.00
54389;BME280;40975;50.390;8.640;2023-07-30T00:59:49;98499.59;;;16.68;100.00
54389;BME280;40975;50.390;8.640;2023-07-30T01:02:14;98482.50;;;16.69;100.00
54389;BME280;40975;50.390;8.640;2023-07-30T01:04:40;98496.09;;;16.74;100.00
54389;BME280;40975;50.390;8.640;2023-07-30T01:07:06;98500.44;;;16.75;100.00
54389;BME280;40975;50.390;8.640;2023-07-30T01:09:32;98509.09;;;16.77;100.00
54389;BME280;40975;50.390;8.640;2023-07-30T01:11:58;98502.50;;;16.80;100.00
54389;BME280;40975;50.390;8.640;2023-07-30T01:14:25;98506.03;;;16.81;100.00
54389;BME280;40975;50.390;8.640;2023-07-30T01:16:54;98505.00;;;16.82;100.00
54389;BME280;40975;50.390;8.640;2023-07-30T01:19:19;98505.59;;;16.84;100.00
54389;BME280;40975;50.390;8.640;2023-07-30T01:21:44;98515.13;;;16.86;100.00
54389;BME280;40975;50.390;8.640;2023-07-30T01:24:10;98512.22;;;16.88;100.00
54389;BME280;40975;50.390;8.640;2023-07-30T01:27:02;98514.91;;;16.88;100.00
54389;BME280;40975;50.390;8.640;2023-07-30T01:29:38;98521.69;;;16.90;100.00
54389;BME280;40975;50.390;8.640;2023-07-30T01:32:07;98524.16;;;16.92;100.00
54389;BME280;40975;50.390;8.640;2023-07-30T01:34:35;98531.19;;;16.93;100.00
54389;BME280;40975;50.390;8.640;2023-07-30T01:37:01;98535.56;;;16.94;100.00
54389;BME280;40975;50.390;8.640;2023-07-30T01:39:28;98530.19;;;16.94;100.00
54389;BME280;40975;50.390;8.640;2023-07-30T01:41:54;98538.06;;;16.96;100.00
54389;BME280;40975;50.390;8.640;2023-07-30T01:44:20;98543.19;;;16.97;100.00
54389;BME280;40975;50.390;8.640;2023-07-30T01:46:46;98541.91;;;16.93;100.00
54389;BME280;40975;50.390;8.640;2023-07-30T01:49:11;98550.44;;;16.97;100.00
54389;BME280;40975;50.390;8.640;2023-07-30T01:51:36;98557.19;;;16.92;100.00
54389;BME280;40975;50.390;8.640;2023-07-30T01:54:02;98560.06;;;16.91;100.00
54389;BME280;40975;50.390;8.640;2023-07-30T01:56:27;98561.28;;;16.88;100.00
54389;BME280;40975;50.390;8.640;2023-07-30T01:58:52;98567.88;;;16.86;100.00
54389;BME280;40975;50.390;8.640;2023-07-30T02:01:17;98566.41;;;16.83;100.00
54389;BME280;40975;50.390;8.640;2023-07-30T02:03:43;98572.00;;;16.82;100.00
54389;BME280;40975;50.390;8.640;2023-07-30T02:06:08;98554.44;;;16.79;100.00
54389;BME280;40975;50.390;8.640;2023-07-30T02:08:33;98560.69;;;16.86;100.00
54389;BME280;40975;50.390;8.640;2023-07-30T02:10:59;98560.03;;;16.84;100.00
54389;BME280;40975;50.390;8.640;2023-07-30T02:13:25;98559.63;;;16.81;100.00
54389;BME280;40975;50.390;8.640;2023-07-30T02:15:51;98563.50;;;16.78;100.00
54389;BME280;40975;50.390;8.640;2023-07-30T02:18:16;98567.41;;;16.75;100.00
54389;BME280;40975;50.390;8.640;2023-07-30T02:20:42;98570.31;;;16.74;100.00
54389;BME280;40975;50.390;8.640;2023-07-30T02:23:07;98575.84;;;16.72;100.00
54389;BME280;40975;50.390;8.640;2023-07-30T02:25:33;98577.91;;;16.70;100.00
54389;BME280;40975;50.390;8.640;2023-07-30T02:27:59;98579.75;;;16.70;100.00
54389;BME280;40975;50.390;8.640;2023-07-30T02:30:24;98577.91;;;16.70;100.00
54389;BME280;40975;50.390;8.640;2023-07-30T02:32:50;98570.91;;;16.69;100.00
54389;BME280;40975;50.390;8.640;2023-07-30T02:35:15;98579.56;;;16.71;100.00
54389;BME280;40975;50.390;8.640;2023-07-30T02:37:40;98584.50;;;16.74;100.00
54389;BME280;40975;50.390;8.640;2023-07-30T02:40:06;98585.78;;;16.78;100.00
54389;BME280;40975;50.390;8.640;2023-07-30T02:42:32;98579.78;;;16.76;100.00
54389;BME280;40975;50.390;8.640;2023-07-30T02:44:57;98580.22;;;16.80;100.00
54389;BME280;40975;50.390;8.640;2023-07-30T02:47:23;98583.53;;;16.82;100.00
54389;BME280;40975;50.390;8.640;2023-07-30T02:49:48;98587.63;;;16.78;100.00
54389;BME280;40975;50.390;8.640;2023-07-30T02:52:14;98590.72;;;16.75;100.00
54389;BME280;40975;50.390;8.640;2023-07-30T02:54:39;98589.88;;;16.74;100.00
54389;BME280;40975;50.390;8.640;2023-07-30T02:57:05;98592.56;;;16.74;100.00
54389;BME280;40975;50.390;8.640;2023-07-30T02:59:30;98590.91;;;16.73;100.00
54389;BME280;40975;50.390;8.640;2023-07-30T03:01:55;98587.19;;;16.74;100.00
54389;BME280;40975;50.390;8.640;2023-07-30T03:04:21;98590.91;;;16.73;100.00
54389;BME280;40975;50.390;8.640;2023-07-30T03:06:46;98587.41;;;16.73;100.00
54389;BME280;40975;50.390;8.640;2023-07-30T03:09:12;98597.09;;;16.74;100.00
54389;BME280;40975;50.390;8.640;2023-07-30T03:11:37;98600.81;;;16.73;100.00
54389;BME280;40975;50.390;8.640;2023-07-30T03:14:02;98597.28;;;16.72;100.00
54389;BME280;40975;50.390;8.640;2023-07-30T03:16:28;98603.28;;;16.74;100.00
54389;BME280;40975;50.390;8.640;2023-07-30T03:18:54;98597.91;;;16.74;100.00
54389;BME280;40975;50.390;8.640;2023-07-30T03:21:19;98603.09;;;16.76;100.00
54389;BME280;40975;50.390;8.640;2023-07-30T03:23:44;98594.41;;;16.74;100.00
54389;BME280;40975;50.390;8.640;2023-07-30T03:26:10;98601.44;;;16.75;100.00
54389;BME280;40975;50.390;8.640;2023-07-30T03:28:36;98603.28;;;16.74;100.00
54389;BME280;40975;50.390;8.640;2023-07-30T03:31:01;98605.31;;;16.72;100.00
54389;BME280;40975;50.390;8.640;2023-07-30T03:33:27;98614.41;;;16.71;100.00
54389;BME280;40975;50.390;8.640;2023-07-30T03:35:52;98608.81;;;16.66;100.00
54389;BME280;40975;50.390;8.640;2023-07-30T03:38:17;98611.25;;;16.61;100.00
54389;BME280;40975;50.390;8.640;2023-07-30T03:40:43;98610.38;;;16.54;100.00
54389;BME280;40975;50.390;8.640;2023-07-30T03:43:08;98623.56;;;16.48;100.00
54389;BME280;40975;50.390;8.640;2023-07-30T03:45:33;98618.16;;;16.42;100.00
54389;BME280;40975;50.390;8.640;2023-07-30T03:47:59;98614.41;;;16.36;100.00
54389;BME280;40975;50.390;8.640;2023-07-30T03:50:24;98611.50;;;16.31;100.00
54389;BME280;40975;50.390;8.640;2023-07-30T03:52:49;98625.22;;;16.21;100.00
54389;BME280;40975;50.390;8.640;2023-07-30T03:55:15;98618.00;;;16.15;100.00
54389;BME280;40975;50.390;8.640;2023-07-30T03:57:40;98615.25;;;16.08;100.00
54389;BME280;40975;50.390;8.640;2023-07-30T04:00:06;98625.69;;;16.03;100.00
54389;BME280;40975;50.390;8.640;2023-07-30T04:02:39;98619.91;;;15.99;100.00
54389;BME280;40975;50.390;8.640;2023-07-30T04:05:05;98618.25;;;15.98;100.00
54389;BME280;40975;50.390;8.640;2023-07-30T04:07:30;98621.34;;;15.95;100.00
54389;BME280;40975;50.390;8.640;2023-07-30T04:09:55;98629.38;;;15.95;100.00
54389;BME280;40975;50.390;8.640;2023-07-30T04:12:22;98619.47;;;15.96;100.00
54389;BME280;40975;50.390;8.640;2023-07-30T04:14:47;98613.47;;;15.94;100.00
54389;BME280;40975;50.390;8.640;2023-07-30T04:17:13;98627.44;;;15.89;100.00
54389;BME280;40975;50.390;8.640;2023-07-30T04:19:38;98622.69;;;15.84;100.00
54389;BME280;40975;50.390;8.640;2023-07-30T04:22:03;98622.84;;;15.83;100.00
54389;BME280;40975;50.390;8.640;2023-07-30T04:24:29;98627.50;;;15.74;100.00
54389;BME280;40975;50.390;8.640;2023-07-30T04:26:54;98627.25;;;15.69;100.00
54389;BME280;40975;50.390;8.640;2023-07-30T04:29:19;98629.06;;;15.62;100.00
54389;BME280;40975;50.390;8.640;2023-07-30T04:31:45;98629.78;;;15.55;100.00
54389;BME280;40975;50.390;8.640;2023-07-30T04:34:10;98627.69;;;15.51;100.00
54389;BME280;40975;50.390;8.640;2023-07-30T04:36:36;98625.38;;;15.48;100.00
54389;BME280;40975;50.390;8.640;2023-07-30T04:39:01;98628.06;;;15.48;100.00
54389;BME280;40975;50.390;8.640;2023-07-30T04:41:30;98621.91;;;15.47;100.00
54389;BME280;40975;50.390;8.640;2023-07-30T04:43:57;98623.28;;;15.43;100.00
54389;BME280;40975;50.390;8.640;2023-07-30T04:46:22;98614.44;;;15.43;100.00
54389;BME280;40975;50.390;8.640;2023-07-30T04:48:48;98628.47;;;15.45;100.00
54389;BME280;40975;50.390;8.640;2023-07-30T04:51:16;98620.00;;;15.41;100.00
54389;BME280;40975;50.390;8.640;2023-07-30T04:53:41;98624.78;;;15.46;100.00
54389;BME280;40975;50.390;8.640;2023-07-30T04:56:07;98619.44;;;15.46;100.00
54389;BME280;40975;50.390;8.640;2023-07-30T04:58:32;98626.59;;;15.45;100.00
54389;BME280;40975;50.390;8.640;2023-07-30T05:00:57;98627.69;;;15.51;100.00
54389;BME280;40975;50.390;8.640;2023-07-30T05:03:23;98630.81;;;15.54;100.00
54389;BME280;40975;50.390;8.640;2023-07-30T05:05:48;98631.91;;;15.60;100.00
54389;BME280;40975;50.390;8.640;2023-07-30T05:08:13;98636.66;;;15.65;100.00
54389;BME280;40975;50.390;8.640;2023-07-30T05:10:39;98635.28;;;15.69;100.00
54389;BME280;40975;50.390;8.640;2023-07-30T05:13:05;98639.22;;;15.73;100.00
54389;BME280;40975;50.390;8.640;2023-07-30T05:15:30;98635.97;;;15.78;100.00
54389;BME280;40975;50.390;8.640;2023-07-30T05:17:55;98636.06;;;15.84;100.00
54389;BME280;40975;50.390;8.640;2023-07-30T05:20:21;98638.59;;;15.93;100.00
54389;BME280;40975;50.390;8.640;2023-07-30T05:22:46;98639.28;;;16.01;100.00
54389;BME280;40975;50.390;8.640;2023-07-30T05:25:11;98631.75;;;16.12;100.00
54389;BME280;40975;50.390;8.640;2023-07-30T05:27:37;98637.78;;;16.21;100.00
54389;BME280;40975;50.390;8.640;2023-07-30T05:30:02;98634.72;;;16.24;100.00
54389;BME280;40975;50.390;8.640;2023-07-30T05:32:27;98628.38;;;16.31;100.00
54389;BME280;40975;50.390;8.640;2023-07-30T05:34:53;98623.72;;;16.40;100.00
54389;BME280;40975;50.390;8.640;2023-07-30T05:37:18;98625.22;;;16.50;100.00
54389;BME280;40975;50.390;8.640;2023-07-30T05:39:44;98623.19;;;16.58;100.00
54389;BME280;40975;50.390;8.640;2023-07-30T05:42:09;98623.94;;;16.81;100.00
54389;BME280;40975;50.390;8.640;2023-07-30T05:44:34;98630.50;;;17.20;100.00
54389;BME280;40975;50.390;8.640;2023-07-30T05:47:00;98624.81;;;17.77;100.00
54389;BME280;40975;50.390;8.640;2023-07-30T05:49:25;98632.22;;;18.48;100.00
54389;BME280;40975;50.390;8.640;2023-07-30T05:51:50;98623.38;;;19.14;100.00
54389;BME280;40975;50.390;8.640;2023-07-30T05:54:17;98634.09;;;19.84;100.00
54389;BME280;40975;50.390;8.640;2023-07-30T05:56:42;98631.94;;;20.44;100.00
54389;BME280;40975;50.390;8.640;2023-07-30T05:59:07;98636.03;;;21.39;94.27
54389;BME280;40975;50.390;8.640;2023-07-30T06:01:33;98642.19;;;22.01;87.18
54389;BME280;40975;50.390;8.640;2023-07-30T06:03:58;98652.09;;;22.66;83.12
54389;BME280;40975;50.390;8.640;2023-07-30T06:06:23;98654.81;;;22.66;80.83
54389;BME280;40975;50.390;8.640;2023-07-30T06:08:53;98650.84;;;23.10;77.95
54389;BME280;40975;50.390;8.640;2023-07-30T06:11:18;98651.75;;;23.16;74.80
54389;BME280;40975;50.390;8.640;2023-07-30T06:13:44;98659.31;;;23.02;74.50
54389;BME280;40975;50.390;8.640;2023-07-30T06:16:10;98654.13;;;23.41;72.99
54389;BME280;40975;50.390;8.640;2023-07-30T06:18:35;98655.00;;;22.89;73.28
54389;BME280;40975;50.390;8.640;2023-07-30T06:21:00;98655.72;;;22.72;74.27
54389;BME280;40975;50.390;8.640;2023-07-30T06:23:26;98667.91;;;22.98;72.66
54389;BME280;40975;50.390;8.640;2023-07-30T06:25:51;98669.78;;;22.98;73.63
54389;BME280;40975;50.390;8.640;2023-07-30T06:28:16;98671.00;;;22.90;74.04
54389;BME280;40975;50.390;8.640;2023-07-30T06:30:42;98672.38;;;23.05;74.84
54389;BME280;40975;50.390;8.640;2023-07-30T06:33:07;98666.44;;;22.79;74.82
54389;BME280;40975;50.390;8.640;2023-07-30T06:35:33;98669.75;;;22.45;77.34
54389;BME280;40975;50.390;8.640;2023-07-30T06:37:58;98672.59;;;21.96;77.27
54389;BME280;40975;50.390;8.640;2023-07-30T06:40:23;98660.56;;;22.58;76.26
54389;BME280;40975;50.390;8.640;2023-07-30T06:42:49;98671.66;;;23.50;71.74
54389;BME280;40975;50.390;8.640;2023-07-30T06:45:14;98682.56;;;24.52;68.58
54389;BME280;40975;50.390;8.640;2023-07-30T06:47:39;98685.75;;;25.28;64.43
54389;BME280;40975;50.390;8.640;2023-07-30T06:50:05;98683.25;;;24.60;67.67
54389;BME280;40975;50.390;8.640;2023-07-30T06:52:34;98681.91;;;23.48;68.54
54389;BME280;40975;50.390;8.640;2023-07-30T06:55:00;98687.25;;;22.43;74.33
54389;BME280;40975;50.390;8.640;2023-07-30T06:57:25;98685.91;;;21.67;78.08
54389;BME280;40975;50.390;8.640;2023-07-30T06:59:50;98679.97;;;21.28;81.50
54389;BME280;40975;50.390;8.640;2023-07-30T07:02:16;98677.06;;;21.11;83.00
54389;BME280;40975;50.390;8.640;2023-07-30T07:04:41;98667.63;;;21.02;82.40
54389;BME280;40975;50.390;8.640;2023-07-30T07:07:06;98671.75;;;21.04;85.92
54389;BME280;40975;50.390;8.640;2023-07-30T07:09:32;98675.59;;;21.15;85.73
54389;BME280;40975;50.390;8.640;2023-07-30T07:11:58;98673.78;;;21.09;80.70
54389;BME280;40975;50.390;8.640;2023-07-30T07:14:23;98679.03;;;21.04;82.38
54389;BME280;40975;50.390;8.640;2023-07-30T07:16:48;98676.47;;;21.09;86.07
54389;BME280;40975;50.390;8.640;2023-07-30T07:19:14;98678.16;;;21.22;87.11
54389;BME280;40975;50.390;8.640;2023-07-30T07:21:40;98683.19;;;21.18;83.97
54389;BME280;40975;50.390;8.640;2023-07-30T07:24:05;98688.38;;;21.38;85.99
54389;BME280;40975;50.390;8.640;2023-07-30T07:26:31;98688.72;;;21.61;83.57
54389;BME280;40975;50.390;8.640;2023-07-30T07:28:56;98696.22;;;21.58;82.62
54389;BME280;40975;50.390;8.640;2023-07-30T07:31:21;98701.13;;;21.12;83.84
54389;BME280;40975;50.390;8.640;2023-07-30T07:33:47;98707.22;;;20.64;83.17
54389;BME280;40975;50.390;8.640;2023-07-30T07:36:12;98712.09;;;20.30;85.58
54389;BME280;40975;50.390;8.640;2023-07-30T07:38:39;98704.66;;;20.00;87.25
54389;BME280;40975;50.390;8.640;2023-07-30T07:41:04;98697.09;;;19.77;88.29
54389;BME280;40975;50.390;8.640;2023-07-30T07:43:30;98705.69;;;19.60;88.90
54389;BME280;40975;50.390;8.640;2023-07-30T07:45:55;98703.50;;;19.44;92.90
54389;BME280;40975;50.390;8.640;2023-07-30T07:48:21;98701.88;;;19.36;95.79
54389;BME280;40975;50.390;8.640;2023-07-30T07:50:46;98695.72;;;19.22;95.62
54389;BME280;40975;50.390;8.640;2023-07-30T07:53:11;98682.81;;;19.37;94.79
54389;BME280;40975;50.390;8.640;2023-07-30T07:55:37;98683.50;;;19.65;92.31
54389;BME280;40975;50.390;8.640;2023-07-30T07:58:02;98678.50;;;20.07;90.71
54389;BME280;40975;50.390;8.640;2023-07-30T08:00:27;98679.63;;;20.43;89.45
54389;BME280;40975;50.390;8.640;2023-07-30T08:02:53;98675.47;;;20.66;87.81
54389;BME280;40975;50.390;8.640;2023-07-30T08:05:18;98681.75;;;20.85;83.42
54389;BME280;40975;50.390;8.640;2023-07-30T08:07:46;98688.38;;;20.83;81.21
54389;BME280;40975;50.390;8.640;2023-07-30T08:10:11;98677.19;;;20.60;80.10
54389;BME280;40975;50.390;8.640;2023-07-30T08:12:36;98686.19;;;20.73;80.74
54389;BME280;40975;50.390;8.640;2023-07-30T08:15:02;98677.72;;;20.69;80.70
54389;BME280;40975;50.390;8.640;2023-07-30T08:17:27;98680.59;;;20.74;80.79
54389;BME280;40975;50.390;8.640;2023-07-30T08:19:53;98668.75;;;20.75;82.09
54389;BME280;40975;50.390;8.640;2023-07-30T08:22:18;98668.00;;;20.68;82.18
54389;BME280;40975;50.390;8.640;2023-07-30T08:24:43;98663.00;;;20.46;80.38
54389;BME280;40975;50.390;8.640;2023-07-30T08:27:09;98672.53;;;20.24;81.32
54389;BME280;40975;50.390;8.640;2023-07-30T08:29:34;98675.91;;;20.19;85.39
54389;BME280;40975;50.390;8.640;2023-07-30T08:31:59;98678.50;;;20.07;85.78
54389;BME280;40975;50.390;8.640;2023-07-30T08:34:25;98676.50;;;19.96;84.70
54389;BME280;40975;50.390;8.640;2023-07-30T08:36:50;98669.03;;;19.98;85.29
54389;BME280;40975;50.390;8.640;2023-07-30T08:39:16;98651.03;;;20.17;85.11
54389;BME280;40975;50.390;8.640;2023-07-30T08:41:41;98651.78;;;20.31;82.95
54389;BME280;40975;50.390;8.640;2023-07-30T08:44:06;98649.78;;;20.45;83.15
54389;BME280;40975;50.390;8.640;2023-07-30T08:46:32;98651.88;;;20.61;83.39
54389;BME280;40975;50.390;8.640;2023-07-30T08:48:57;98643.06;;;20.73;82.06
54389;BME280;40975;50.390;8.640;2023-07-30T08:51:23;98649.28;;;20.92;81.81
54389;BME280;40975;50.390;8.640;2023-07-30T08:53:51;98646.19;;;21.25;82.99
54389;BME280;40975;50.390;8.640;2023-07-30T08:56:16;98651.47;;;21.32;79.80
54389;BME280;40975;50.390;8.640;2023-07-30T08:58:42;98649.09;;;21.24;78.50
54389;BME280;40975;50.390;8.640;2023-07-30T09:01:09;98645.47;;;21.00;78.58
54389;BME280;40975;50.390;8.640;2023-07-30T09:03:38;98645.31;;;20.94;79.62
54389;BME280;40975;50.390;8.640;2023-07-30T09:06:03;98646.97;;;20.95;80.80
54389;BME280;40975;50.390;8.640;2023-07-30T09:08:29;98654.31;;;20.88;82.40
54389;BME280;40975;50.390;8.640;2023-07-30T09:10:55;98655.44;;;20.80;81.06
54389;BME280;40975;50.390;8.640;2023-07-30T09:13:21;98657.81;;;20.70;81.54
54389;BME280;40975;50.390;8.640;2023-07-30T09:15:48;98647.16;;;20.57;80.87
54389;BME280;40975;50.390;8.640;2023-07-30T09:18:16;98648.06;;;20.50;86.30
54389;BME280;40975;50.390;8.640;2023-07-30T09:20:43;98650.50;;;20.33;88.13
54389;BME280;40975;50.390;8.640;2023-07-30T09:23:09;98645.53;;;20.30;90.71
54389;BME280;40975;50.390;8.640;2023-07-30T09:25:35;98639.31;;;20.11;86.51
54389;BME280;40975;50.390;8.640;2023-07-30T09:28:00;98629.41;;;20.05;87.30
54389;BME280;40975;50.390;8.640;2023-07-30T09:30:26;98635.44;;;20.00;90.41
54389;BME280;40975;50.390;8.640;2023-07-30T09:32:56;98632.66;;;19.88;91.33
54389;BME280;40975;50.390;8.640;2023-07-30T09:35:23;98639.47;;;19.84;94.00
54389;BME280;40975;50.390;8.640;2023-07-30T09:37:50;98640.81;;;19.68;100.00
54389;BME280;40975;50.390;8.640;2023-07-30T09:40:31;98658.94;;;19.54;100.00
54389;BME280;40975;50.390;8.640;2023-07-30T09:42:57;98667.53;;;19.31;100.00
54389;BME280;40975;50.390;8.640;2023-07-30T09:45:24;98677.59;;;18.97;100.00
54389;BME280;40975;50.390;8.640;2023-07-30T09:47:53;98693.63;;;18.58;100.00
54389;BME280;40975;50.390;8.640;2023-07-30T09:50:19;98704.16;;;17.99;100.00
54389;BME280;40975;50.390;8.640;2023-07-30T09:52:45;98697.19;;;17.43;100.00
54389;BME280;40975;50.390;8.640;2023-07-30T09:55:11;98703.84;;;17.05;100.00
54389;BME280;40975;50.390;8.640;2023-07-30T09:57:37;98691.19;;;16.92;100.00
54389;BME280;40975;50.390;8.640;2023-07-30T10:00:05;98696.50;;;16.86;100.00
54389;BME280;40975;50.390;8.640;2023-07-30T10:02:37;98698.88;;;17.02;100.00
54389;BME280;40975;50.390;8.640;2023-07-30T10:05:08;98695.59;;;17.07;100.00
54389;BME280;40975;50.390;8.640;2023-07-30T10:07:35;98688.66;;;17.19;100.00
54389;BME280;40975;50.390;8.640;2023-07-30T10:10:02;98693.44;;;17.31;100.00
54389;BME280;40975;50.390;8.640;2023-07-30T10:12:34;98703.19;;;17.45;100.00
54389;BME280;40975;50.390;8.640;2023-07-30T10:15:01;98716.66;;;17.65;100.00
54389;BME280;40975;50.390;8.640;2023-07-30T10:17:26;98721.00;;;17.66;100.00
54389;BME280;40975;50.390;8.640;2023-07-30T10:19:53;98731.56;;;17.88;100.00
54389;BME280;40975;50.390;8.640;2023-07-30T10:22:23;98740.53;;;18.29;100.00
54389;BME280;40975;50.390;8.640;2023-07-30T10:25:03;98755.00;;;18.41;100.00
54389;BME280;40975;50.390;8.640;2023-07-30T10:27:41;98757.19;;;19.18;100.00
54389;BME280;40975;50.390;8.640;2023-07-30T10:30:15;98750.66;;;19.53;100.00
54389;BME280;40975;50.390;8.640;2023-07-30T10:32:41;98748.06;;;19.71;100.00
54389;BME280;40975;50.390;8.640;2023-07-30T10:35:07;98754.69;;;20.40;100.00
54389;BME280;40975;50.390;8.640;2023-07-30T10:37:33;98767.44;;;20.83;100.00
54389;BME280;40975;50.390;8.640;2023-07-30T10:39:59;98765.84;;;20.69;100.00
54389;BME280;40975;50.390;8.640;2023-07-30T10:42:33;98757.44;;;20.84;100.00
54389;BME280;40975;50.390;8.640;2023-07-30T10:44:58;98773.91;;;21.19;99.50
54389;BME280;40975;50.390;8.640;2023-07-30T10:49:51;98782.72;;;21.26;97.18
54389;BME280;40975;50.390;8.640;2023-07-30T10:52:17;98784.22;;;21.78;95.20
54389;BME280;40975;50.390;8.640;2023-07-30T10:54:43;98787.56;;;22.65;89.31
54389;BME280;40975;50.390;8.640;2023-07-30T10:57:08;98784.34;;;22.14;89.47
54389;BME280;40975;50.390;8.640;2023-07-30T10:59:35;98805.38;;;23.61;93.43
54389;BME280;40975;50.390;8.640;2023-07-30T11:02:02;98805.97;;;24.84;85.14
54389;BME280;40975;50.390;8.640;2023-07-30T11:04:27;98806.16;;;25.78;80.71
54389;BME280;40975;50.390;8.640;2023-07-30T11:06:52;98811.16;;;24.86;71.06
54389;BME280;40975;50.390;8.640;2023-07-30T11:09:22;98811.88;;;24.64;75.30
54389;BME280;40975;50.390;8.640;2023-07-30T11:11:49;98808.00;;;23.97;78.41
54389;BME280;40975;50.390;8.640;2023-07-30T11:14:15;98830.38;;;25.01;76.92
54389;BME280;40975;50.390;8.640;2023-07-30T11:16:48;98832.19;;;25.52;71.57
54389;BME280;40975;50.390;8.640;2023-07-30T11:19:14;98821.84;;;24.75;68.80
54389;BME280;40975;50.390;8.640;2023-07-30T11:21:47;98829.63;;;23.68;72.32
54389;BME280;40975;50.390;8.640;2023-07-30T11:24:13;98832.16;;;23.10;72.36
54389;BME280;40975;50.390;8.640;2023-07-30T11:26:38;98841.28;;;22.31;77.46
54389;BME280;40975;50.390;8.640;2023-07-30T11:29:16;98843.66;;;21.59;78.80
54389;BME280;40975;50.390;8.640;2023-07-30T11:31:43;98830.00;;;22.03;82.79
54389;BME280;40975;50.390;8.640;2023-07-30T11:34:09;98833.97;;;21.89;80.52
54389;BME280;40975;50.390;8.640;2023-07-30T11:36:34;98843.19;;;21.44;80.58
54389;BME280;40975;50.390;8.640;2023-07-30T11:39:00;98825.44;;;20.92;84.83
54389;BME280;40975;50.390;8.640;2023-07-30T11:41:26;98833.47;;;20.74;87.10
54389;BME280;40975;50.390;8.640;2023-07-30T11:43:52;98831.66;;;20.35;87.77
54389;BME280;40975;50.390;8.640;2023-07-30T11:46:18;98841.16;;;19.99;91.27
54389;BME280;40975;50.390;8.640;2023-07-30T11:48:46;98848.88;;;19.89;97.62
54389;BME280;40975;50.390;8.640;2023-07-30T11:53:49;98851.50;;;19.37;90.17
54389;BME280;40975;50.390;8.640;2023-07-30T11:56:23;98854.44;;;19.29;93.59
54389;BME280;40975;50.390;8.640;2023-07-30T11:58:49;98858.38;;;19.19;91.88
54389;BME280;40975;50.390;8.640;2023-07-30T12:01:16;98849.88;;;19.22;91.90
54389;BME280;40975;50.390;8.640;2023-07-30T12:03:42;98852.59;;;19.16;89.97
54389;BME280;40975;50.390;8.640;2023-07-30T12:06:09;98860.03;;;19.20;94.15
54389;BME280;40975;50.390;8.640;2023-07-30T12:08:34;98859.81;;;19.15;93.23
54389;BME280;40975;50.390;8.640;2023-07-30T12:11:05;98871.44;;;19.09;93.09
54389;BME280;40975;50.390;8.640;2023-07-30T12:13:31;98868.72;;;19.02;93.99
54389;BME280;40975;50.390;8.640;2023-07-30T12:15:56;98862.28;;;18.90;89.32
54389;BME280;40975;50.390;8.640;2023-07-30T12:18:23;98860.38;;;19.44;91.15
54389;BME280;40975;50.390;8.640;2023-07-30T12:20:52;98862.53;;;20.33;86.54
54389;BME280;40975;50.390;8.640;2023-07-30T12:23:18;98866.53;;;21.13;76.13
54389;BME280;40975;50.390;8.640;2023-07-30T12:25:45;98879.94;;;22.50;80.62
54389;BME280;40975;50.390;8.640;2023-07-30T12:28:10;98889.41;;;22.83;70.19
54389;BME280;40975;50.390;8.640;2023-07-30T12:30:36;98882.38;;;22.94;72.74
54389;BME280;40975;50.390;8.640;2023-07-30T12:33:05;98875.25;;;23.35;68.79
54389;BME280;40975;50.390;8.640;2023-07-30T12:35:31;98870.66;;;23.24;65.76
54389;BME280;40975;50.390;8.640;2023-07-30T12:37:57;98869.66;;;23.66;69.58
54389;BME280;40975;50.390;8.640;2023-07-30T12:40:22;98865.34;;;23.53;64.28
54389;BME280;40975;50.390;8.640;2023-07-30T12:42:48;98878.81;;;23.76;65.67
54389;BME280;40975;50.390;8.640;2023-07-30T12:45:13;98877.06;;;23.70;67.85
54389;BME280;40975;50.390;8.640;2023-07-30T12:47:40;98877.31;;;23.69;67.49
54389;BME280;40975;50.390;8.640;2023-07-30T12:50:05;98873.06;;;22.90;65.24
54389;BME280;40975;50.390;8.640;2023-07-30T12:52:33;98870.31;;;22.66;65.86
54389;BME280;40975;50.390;8.640;2023-07-30T12:54:58;98859.88;;;22.70;62.81